Alpine Marie — H3UD — position and weather

sailwx.info

Track history (hours):
 
Tides and Currents Weather Stations Pressure Air Temp Water Temp Dewpoint Dewpoint Depression Visibility Wind Speed Wind Dir Waves Ship Positions

Alpine Marie

Last reported at 2014-Jun-04 22:17 UTC. Time now 2014-Jul-22 07:18 UTC.
Position N 31°21' E 032°22'.
Warning: this ship's position is 47 days out of date.

Length 172 m; draft 10.1 m.

Type: Tanker. MMSI: 353172000.

Date/timePositionNaut miles runAvg speedWind from/ knotsBaromVisibWave heightAir tempDewpointWater temp
2014-Jun-04 22:17N 31°21' E 032°22'2 0.4
2014-Jun-04 17:07N 31°21' E 032°20'0 0.0
2014-Jun-04 16:34N 31°21' E 032°20'0 0.0
2014-Jun-04 09:28N 31°22' E 032°19'0 0.0
2014-Jun-04 07:28N 31°22' E 032°19'0 0.0
2014-Jun-04 05:10N 31°22' E 032°19'0 0.0
2014-Jun-04 04:31N 31°22' E 032°19'0 0.0
2014-Jun-04 02:34N 31°22' E 032°19'0 0.0
2014-Jun-04 01:31N 31°22' E 032°19'1 1.1
2014-Jun-04 00:33N 31°23' E 032°19'7 7.3
2014-Jun-03 23:33N 31°29' E 032°15'1110.9
2014-Jun-03 22:33N 31°37' E 032°06'1312.6
2014-Jun-03 21:31N 31°46' E 031°55'1312.9
2014-Jun-03 20:33N 31°55' E 031°45'1313.0
2014-Jun-03 19:33N 32°03' E 031°33'1313.0
2014-Jun-03 18:33N 32°10' E 031°20'1313.0
2014-Jun-03 17:33N 32°17' E 031°07'1313.0
2014-Jun-03 16:33N 32°25' E 030°55'1313.0
2014-Jun-03 15:32N 32°32' E 030°42'1313.2
2014-Jun-03 14:33N 32°40' E 030°29'2512.3
2014-Jun-03 12:33N 32°36' E 030°00'1313.2
2014-Jun-03 11:33N 32°31' E 029°46'1312.7
2014-Jun-03 10:33N 32°33' E 029°31'1613.2
2014-Jun-03 09:22N 32°37' E 029°13'  
2014-May-31 09:21N 37°34' E 010°32'1114.1
2014-May-31 08:33N 37°33' E 010°18'1614.4
2014-May-31 07:27N 37°34' E 009°58'1314.6
2014-May-31 06:33N 37°36' E 009°42'1514.3
2014-May-31 05:31N 37°37' E 009°23'1414.2
2014-May-31 04:33N 37°39' E 009°06'1413.7
2014-May-31 03:32N 37°38' E 008°48'1613.5
2014-May-31 02:21N 37°36' E 008°28'1012.9
2014-May-31 01:33N 37°36' E 008°15'13912.6
2014-May-30 14:32N 37°25' E 005°20'1212.5
2014-May-30 13:33N 37°25' E 005°05'1412.7
2014-May-30 12:28N 37°23' E 004°48'1212.8
2014-May-30 11:33N 37°22' E 004°33'1313.1
2014-May-30 10:33N 37°21' E 004°17'1313.6
2014-May-30 09:33N 37°20' E 003°60'1312.4
2014-May-30 08:32N 37°17' E 003°44'1313.3
2014-May-30 07:33N 37°15' E 003°28'1413.7
2014-May-30 06:33N 37°12' E 003°11'1413.9
2014-May-30 05:34N 37°10' E 002°54'4213.7
2014-May-30 02:32N 37°02' E 002°03'5713.6
2014-May-29 22:19N 36°51' E 000°52'1013.2
2014-May-29 21:33N 36°48' E 000°40'295 7.2
2014-May-28 04:20N 36°11' W 005°24'0 0.0
2014-May-28 03:26N 36°11' W 005°24'0 0.0
2014-May-27 20:59N 36°11' W 005°24'0 0.0
2014-May-27 19:11N 36°11' W 005°24'0 0.0
2014-May-27 09:32N 36°11' W 005°24'0 0.5
2014-May-27 08:59N 36°10' W 005°24'0 0.3
2014-May-27 08:32N 36°10' W 005°24'0 0.1
2014-May-27 07:29N 36°10' W 005°24'0 0.0
2014-May-27 07:02N 36°10' W 005°24'0 0.0
2014-May-27 06:32N 36°10' W 005°24'0 0.1
2014-May-27 05:59N 36°10' W 005°24'0 0.0
2014-May-27 05:29N 36°10' W 005°24'0 0.1
2014-May-27 04:32N 36°10' W 005°24'0 0.0
2014-May-27 04:02N 36°10' W 005°24'0 0.2
2014-May-27 03:32N 36°10' W 005°24'0 0.0
2014-May-27 00:29N 36°10' W 005°24'0 0.1
2014-May-27 00:02N 36°10' W 005°24'0 0.0
2014-May-26 23:32N 36°10' W 005°24'0 0.0
2014-May-26 23:02N 36°10' W 005°24'0 0.0
2014-May-26 22:32N 36°10' W 005°24'0 0.0
2014-May-26 22:02N 36°10' W 005°24'0 0.0
2014-May-26 21:20N 36°10' W 005°24'0 0.0
2014-May-26 20:02N 36°10' W 005°24'0 0.1
2014-May-26 19:32N 36°10' W 005°24'0 0.0
2014-May-26 19:02N 36°10' W 005°24'0 0.0
2014-May-26 18:29N 36°10' W 005°24'0 0.0
2014-May-26 18:02N 36°10' W 005°24'0 0.1
2014-May-26 17:32N 36°10' W 005°24'0 0.0
2014-May-26 17:02N 36°10' W 005°24'0 0.0
2014-May-26 16:29N 36°10' W 005°24'0 0.0
2014-May-26 15:59N 36°10' W 005°24'0 0.0
2014-May-26 15:32N 36°10' W 005°24'0 0.0
2014-May-26 14:32N 36°10' W 005°24'0 0.0
2014-May-26 14:02N 36°10' W 005°24'0 0.0
2014-May-26 13:32N 36°10' W 005°24'0 0.1
2014-May-26 13:02N 36°10' W 005°24'0 0.0
2014-May-26 12:32N 36°10' W 005°24'0 0.1
2014-May-26 11:59N 36°10' W 005°24'0 0.0
2014-May-26 11:32N 36°10' W 005°24'0 0.0
2014-May-26 10:59N 36°10' W 005°24'0 0.0
2014-May-26 10:29N 36°10' W 005°24'0 0.0
2014-May-26 10:02N 36°10' W 005°24'0 0.0
2014-May-26 09:32N 36°10' W 005°24'0 0.1
2014-May-26 09:02N 36°10' W 005°24'0 0.0
2014-May-26 08:32N 36°10' W 005°24'0 0.0
2014-May-26 08:02N 36°10' W 005°24'0 0.0
2014-May-26 06:50N 36°10' W 005°24'0 0.0
2014-May-26 06:26N 36°10' W 005°24'0 0.0
2014-May-26 05:53N 36°10' W 005°24'0 0.0
2014-May-26 05:32N 36°10' W 005°24'0 0.0
2014-May-26 04:32N 36°10' W 005°24'0 0.0
2014-May-26 04:02N 36°10' W 005°24'0 0.0
2014-May-26 03:32N 36°10' W 005°24'0 0.1
2014-May-26 03:02N 36°10' W 005°24'0 0.1
2014-May-26 02:32N 36°10' W 005°24'0 0.0
2014-May-26 02:02N 36°10' W 005°24'0 0.1
2014-May-26 01:29N 36°10' W 005°24'0 0.0
2014-May-26 00:35N 36°10' W 005°24'0 0.2
2014-May-26 00:29N 36°10' W 005°24'0 0.1
2014-May-26 00:02N 36°10' W 005°24'0 0.1
2014-May-25 23:32N 36°10' W 005°24'0 0.0
2014-May-25 23:17N 36°10' W 005°24'0 0.0
2014-May-25 22:32N 36°10' W 005°24'  
Track history (hours):
 
Tides and Currents Weather Stations Pressure Air Temp Water Temp Dewpoint Dewpoint Depression Visibility Wind Speed Wind Dir Waves Ship Positions

Alpine Marie

Last reported at 2014-Jun-04 22:17 UTC. Time now 2014-Jul-22 07:18 UTC.
Position N 31°21' E 032°22'.
Warning: this ship's position is 47 days out of date.

Length 172 m; draft 10.1 m.

Type: Tanker. MMSI: 353172000.

Date/timePositionNaut miles runAvg speedWind from/ knotsBaromVisibWave heightAir tempDewpointWater temp
2014-Jun-04 22:17N 31°21' E 032°22'2 0.4
2014-Jun-04 17:07N 31°21' E 032°20'0 0.0
2014-Jun-04 16:34N 31°21' E 032°20'0 0.0
2014-Jun-04 09:28N 31°22' E 032°19'0 0.0
2014-Jun-04 07:28N 31°22' E 032°19'0 0.0
2014-Jun-04 05:10N 31°22' E 032°19'0 0.0
2014-Jun-04 04:31N 31°22' E 032°19'0 0.0
2014-Jun-04 02:34N 31°22' E 032°19'0 0.0
2014-Jun-04 01:31N 31°22' E 032°19'1 1.1
2014-Jun-04 00:33N 31°23' E 032°19'7 7.3
2014-Jun-03 23:33N 31°29' E 032°15'1110.9
2014-Jun-03 22:33N 31°37' E 032°06'1312.6
2014-Jun-03 21:31N 31°46' E 031°55'1312.9
2014-Jun-03 20:33N 31°55' E 031°45'1313.0
2014-Jun-03 19:33N 32°03' E 031°33'1313.0
2014-Jun-03 18:33N 32°10' E 031°20'1313.0
2014-Jun-03 17:33N 32°17' E 031°07'1313.0
2014-Jun-03 16:33N 32°25' E 030°55'1313.0
2014-Jun-03 15:32N 32°32' E 030°42'1313.2
2014-Jun-03 14:33N 32°40' E 030°29'2512.3
2014-Jun-03 12:33N 32°36' E 030°00'1313.2
2014-Jun-03 11:33N 32°31' E 029°46'1312.7
2014-Jun-03 10:33N 32°33' E 029°31'1613.2
2014-Jun-03 09:22N 32°37' E 029°13'  
2014-May-31 09:21N 37°34' E 010°32'1114.1
2014-May-31 08:33N 37°33' E 010°18'1614.4
2014-May-31 07:27N 37°34' E 009°58'1314.6
2014-May-31 06:33N 37°36' E 009°42'1514.3
2014-May-31 05:31N 37°37' E 009°23'1414.2
2014-May-31 04:33N 37°39' E 009°06'1413.7
2014-May-31 03:32N 37°38' E 008°48'1613.5
2014-May-31 02:21N 37°36' E 008°28'1012.9
2014-May-31 01:33N 37°36' E 008°15'13912.6
2014-May-30 14:32N 37°25' E 005°20'1212.5
2014-May-30 13:33N 37°25' E 005°05'1412.7
2014-May-30 12:28N 37°23' E 004°48'1212.8
2014-May-30 11:33N 37°22' E 004°33'1313.1
2014-May-30 10:33N 37°21' E 004°17'1313.6
2014-May-30 09:33N 37°20' E 003°60'1312.4
2014-May-30 08:32N 37°17' E 003°44'1313.3
2014-May-30 07:33N 37°15' E 003°28'1413.7
2014-May-30 06:33N 37°12' E 003°11'1413.9
2014-May-30 05:34N 37°10' E 002°54'4213.7
2014-May-30 02:32N 37°02' E 002°03'5713.6
2014-May-29 22:19N 36°51' E 000°52'1013.2
2014-May-29 21:33N 36°48' E 000°40'295 7.2
2014-May-28 04:20N 36°11' W 005°24'0 0.0
2014-May-28 03:26N 36°11' W 005°24'0 0.0
2014-May-27 20:59N 36°11' W 005°24'0 0.0
2014-May-27 19:11N 36°11' W 005°24'0 0.0
2014-May-27 09:32N 36°11' W 005°24'0 0.5
2014-May-27 08:59N 36°10' W 005°24'0 0.3
2014-May-27 08:32N 36°10' W 005°24'0 0.1
2014-May-27 07:29N 36°10' W 005°24'0 0.0
2014-May-27 07:02N 36°10' W 005°24'0 0.0
2014-May-27 06:32N 36°10' W 005°24'0 0.1
2014-May-27 05:59N 36°10' W 005°24'0 0.0
2014-May-27 05:29N 36°10' W 005°24'0 0.1
2014-May-27 04:32N 36°10' W 005°24'0 0.0
2014-May-27 04:02N 36°10' W 005°24'0 0.2
2014-May-27 03:32N 36°10' W 005°24'0 0.0
2014-May-27 00:29N 36°10' W 005°24'0 0.1
2014-May-27 00:02N 36°10' W 005°24'0 0.0
2014-May-26 23:32N 36°10' W 005°24'0 0.0
2014-May-26 23:02N 36°10' W 005°24'0 0.0
2014-May-26 22:32N 36°10' W 005°24'0 0.0
2014-May-26 22:02N 36°10' W 005°24'0 0.0
2014-May-26 21:20N 36°10' W 005°24'0 0.0
2014-May-26 20:02N 36°10' W 005°24'0 0.1
2014-May-26 19:32N 36°10' W 005°24'0 0.0
2014-May-26 19:02N 36°10' W 005°24'0 0.0
2014-May-26 18:29N 36°10' W 005°24'0 0.0
2014-May-26 18:02N 36°10' W 005°24'0 0.1
2014-May-26 17:32N 36°10' W 005°24'0 0.0
2014-May-26 17:02N 36°10' W 005°24'0 0.0
2014-May-26 16:29N 36°10' W 005°24'0 0.0
2014-May-26 15:59N 36°10' W 005°24'0 0.0
2014-May-26 15:32N 36°10' W 005°24'0 0.0
2014-May-26 14:32N 36°10' W 005°24'0 0.0
2014-May-26 14:02N 36°10' W 005°24'0 0.0
2014-May-26 13:32N 36°10' W 005°24'0 0.1
2014-May-26 13:02N 36°10' W 005°24'0 0.0
2014-May-26 12:32N 36°10' W 005°24'0 0.1
2014-May-26 11:59N 36°10' W 005°24'0 0.0
2014-May-26 11:32N 36°10' W 005°24'0 0.0
2014-May-26 10:59N 36°10' W 005°24'0 0.0
2014-May-26 10:29N 36°10' W 005°24'0 0.0
2014-May-26 10:02N 36°10' W 005°24'0 0.0
2014-May-26 09:32N 36°10' W 005°24'0 0.1
2014-May-26 09:02N 36°10' W 005°24'0 0.0
2014-May-26 08:32N 36°10' W 005°24'0 0.0
2014-May-26 08:02N 36°10' W 005°24'0 0.0
2014-May-26 06:50N 36°10' W 005°24'0 0.0
2014-May-26 06:26N 36°10' W 005°24'0 0.0
2014-May-26 05:53N 36°10' W 005°24'0 0.0
2014-May-26 05:32N 36°10' W 005°24'0 0.0
2014-May-26 04:32N 36°10' W 005°24'0 0.0
2014-May-26 04:02N 36°10' W 005°24'0 0.0
2014-May-26 03:32N 36°10' W 005°24'0 0.1
2014-May-26 03:02N 36°10' W 005°24'0 0.1
2014-May-26 02:32N 36°10' W 005°24'0 0.0
2014-May-26 02:02N 36°10' W 005°24'0 0.1
2014-May-26 01:29N 36°10' W 005°24'0 0.0
2014-May-26 00:35N 36°10' W 005°24'0 0.2
2014-May-26 00:29N 36°10' W 005°24'0 0.1
2014-May-26 00:02N 36°10' W 005°24'0 0.1
2014-May-25 23:32N 36°10' W 005°24'0 0.0
2014-May-25 23:17N 36°10' W 005°24'0 0.0
2014-May-25 22:32N 36°10' W 005°24'  

Dump ship's entire track history